Time;durP1;ratioP1;P1;durP2;ratioP2;P2;SDS_P1;SDS_P2;PMS_P1;PMS_P2;Temp;Humidity;BMP_temperature;BMP_pressure;BME280_temperature;BME280_humidity;BME280_pressure;Samples;Min_cycle;Max_cycle;Signal;HPM_P1;HPM_P2
2021/06/14 00:01:37;;;;;;;3.75;1.62;;;;;;;16.82;67.28;99914.67;1724859;80;22005;-63
2021/06/14 00:04:04;;;;;;;5.92;2.08;;;;;;;16.79;67.13;99918.19;1743644;80;21061;-61
2021/06/14 00:06:32;;;;;;;4.25;1.72;;;;;;;16.69;67.14;99907.77;1719259;81;21149;-63
2021/06/14 00:08:59;;;;;;;5.90;2.17;;;;;;;16.61;67.38;99905.16;1744608;80;21550;-64
2021/06/14 00:11:27;;;;;;;3.98;1.72;;;;;;;16.53;67.55;99906.86;1725347;80;21092;-63
2021/06/14 00:13:54;;;;;;;5.65;1.85;;;;;;;16.53;67.62;99898.07;1728160;80;21054;-65
2021/06/14 00:16:23;;;;;;;4.10;1.70;;;;;;;16.55;67.30;99897.90;1744609;80;21145;-64
2021/06/14 00:18:49;;;;;;;4.70;1.60;;;;;;;16.50;66.97;99899.23;1745252;80;21011;-64
2021/06/14 00:21:17;;;;;;;4.78;1.95;;;;;;;16.47;67.22;99896.09;1740302;80;21090;-63
2021/06/14 00:23:44;;;;;;;4.28;1.92;;;;;;;16.43;67.26;99903.59;1724926;80;21098;-63
2021/06/14 00:26:13;;;;;;;6.03;2.95;;;;;;;16.46;67.46;99903.25;1746471;80;21584;-63
2021/06/14 00:28:39;;;;;;;6.60;2.92;;;;;;;16.49;67.29;99912.20;1741712;80;21141;-64
2021/06/14 00:31:08;;;;;;;6.25;2.67;;;;;;;16.50;67.17;99907.20;1742091;80;21639;-64
2021/06/14 00:33:36;;;;;;;6.08;2.75;;;;;;;16.47;67.31;99911.52;1744303;80;21606;-64
2021/06/14 00:36:03;;;;;;;6.10;2.80;;;;;;;16.45;67.40;99909.55;1710370;82;21140;-61
2021/06/14 00:38:30;;;;;;;5.80;2.37;;;;;;;16.45;67.17;99909.55;1687672;83;21119;-61
2021/06/14 00:40:57;;;;;;;5.33;1.72;;;;;;;16.50;67.24;99908.53;1689940;83;21103;-61
2021/06/14 00:43:24;;;;;;;3.40;1.25;;;;;;;16.54;66.93;99907.67;1685864;83;21185;-61
2021/06/14 00:45:51;;;;;;;4.10;1.57;;;;;;;16.52;66.77;99901.72;1684025;83;21132;-62
2021/06/14 00:48:19;;;;;;;3.20;1.22;;;;;;;16.49;66.80;99894.09;1681798;83;21077;-60
2021/06/14 00:50:56;;;;;;;3.60;1.35;;;;;;;16.45;67.01;99900.25;1689830;83;21571;-60
2021/06/14 00:53:32;;;;;;;2.60;1.12;;;;;;;16.46;67.11;99902.42;1684893;83;21556;-62
2021/06/14 00:56:01;;;;;;;3.70;1.52;;;;;;;16.52;66.82;99899.06;1667476;84;21130;-63
2021/06/14 00:58:29;;;;;;;4.28;1.30;;;;;;;16.55;67.08;99899.23;1658094;83;21125;-61
2021/06/14 01:00:57;;;;;;;3.12;1.20;;;;;;;16.52;66.99;99895.92;1688020;83;21079;-61
2021/06/14 01:03:24;;;;;;;4.35;1.42;;;;;;;16.49;66.77;99895.42;1686638;83;21326;-60
2021/06/14 01:05:58;;;;;;;3.90;1.65;;;;;;;16.44;67.24;99895.96;1687051;83;21484;-61
2021/06/14 01:08:26;;;;;;;3.27;1.25;;;;;;;16.44;67.53;99895.96;1672482;83;21549;-61
2021/06/14 01:10:54;;;;;;;6.22;1.40;;;;;;;16.48;67.94;99896.44;1688285;83;21582;-62
2021/06/14 01:13:36;;;;;;;3.27;1.25;;;;;;;16.47;68.21;99892.94;1660099;83;21779;-64
2021/06/14 01:16:20;;;;;;;3.10;1.27;;;;;;;16.42;68.58;99905.91;1662124;83;21091;-63
2021/06/14 01:19:11;;;;;;;5.58;1.30;;;;;;;16.39;68.62;99900.97;1682513;83;21604;-62
2021/06/14 01:22:14;;;;;;;4.40;1.50;;;;;;;16.34;68.96;99904.64;1689140;83;21127;-62
2021/06/14 01:25:09;;;;;;;3.45;1.40;;;;;;;16.37;69.32;99902.94;1688615;83;21020;-62
2021/06/14 01:27:50;;;;;;;3.50;1.47;;;;;;;16.32;69.40;99898.17;1687891;83;21642;-63
2021/06/14 01:30:21;;;;;;;4.03;1.37;;;;;;;16.24;69.57;99905.31;1686813;83;21793;-62
2021/06/14 01:32:48;;;;;;;4.12;1.70;;;;;;;16.21;69.97;99905.67;1676358;83;21086;-64
2021/06/14 01:35:21;;;;;;;5.05;1.80;;;;;;;16.22;70.27;99902.00;1733466;80;22157;-61
2021/06/14 01:37:51;;;;;;;6.65;2.00;;;;;;;16.22;70.25;99908.64;1752136;79;21936;-63
2021/06/14 01:40:19;;;;;;;4.12;1.82;;;;;;;16.16;70.35;99913.64;1736980;80;21125;-64
2021/06/14 01:42:48;;;;;;;3.92;1.60;;;;;;;16.14;70.72;99920.13;1722176;80;21101;-62
2021/06/14 01:45:16;;;;;;;3.92;1.65;;;;;;;16.13;70.56;99916.63;1749599;79;21464;-63
2021/06/14 01:47:43;;;;;;;3.77;1.62;;;;;;;16.17;70.52;99919.77;1707232;80;21163;-61
2021/06/14 01:50:10;;;;;;;3.80;1.65;;;;;;;16.20;70.55;99927.90;1735033;80;21057;-63
2021/06/14 01:52:36;;;;;;;4.60;1.65;;;;;;;16.20;70.41;99927.39;1725223;80;21021;-63
2021/06/14 01:55:05;;;;;;;3.27;1.52;;;;;;;16.19;70.40;99929.73;1733004;80;21466;-64
2021/06/14 01:57:39;;;;;;;;;;;;;;;16.18;70.62;99936.03;1739778;80;21487;-64
2021/06/14 02:00:23;;;;;;;4.90;1.70;;;;;;;16.25;70.61;99937.51;1711105;82;20532;-65
2021/06/14 02:02:57;;;;;;;5.45;2.10;;;;;;;16.29;70.66;99938.81;1734190;80;21539;-63
2021/06/14 02:05:29;;;;;;;4.58;1.87;;;;;;;16.30;70.72;99947.93;1738063;80;21014;-63
2021/06/14 02:07:56;;;;;;;4.20;2.05;;;;;;;16.29;70.79;99947.63;1735958;80;21473;-63
2021/06/14 02:10:23;;;;;;;5.60;2.05;;;;;;;16.26;70.92;99941.83;1737209;80;21074;-63
2021/06/14 02:12:51;;;;;;;4.50;1.95;;;;;;;16.30;70.37;99937.31;1739139;80;21046;-63
2021/06/14 02:15:18;;;;;;;4.58;1.92;;;;;;;16.35;70.30;99942.11;1735423;80;21085;-63
2021/06/14 02:17:45;;;;;;;4.42;2.20;;;;;;;16.30;70.39;99943.95;1737461;80;21584;-64
2021/06/14 02:20:13;;;;;;;4.97;2.40;;;;;;;16.25;70.77;99941.48;1735104;80;21099;-62
2021/06/14 02:22:40;;;;;;;4.85;2.00;;;;;;;16.25;70.71;99950.27;1736574;80;21106;-63
2021/06/14 02:25:09;;;;;;;4.67;1.55;;;;;;;16.32;70.78;99943.78;1739537;80;21694;-63
2021/06/14 02:27:37;;;;;;;5.70;2.20;;;;;;;16.36;70.59;99939.80;1735001;80;21119;-62
2021/06/14 02:30:12;;;;;;;4.37;2.02;;;;;;;16.36;70.57;99945.11;1737401;80;21045;-63
2021/06/14 02:32:39;;;;;;;4.40;2.40;;;;;;;16.34;70.75;99945.79;1729070;80;21118;-62
2021/06/14 02:35:08;;;;;;;5.30;2.15;;;;;;;16.33;70.93;99953.41;1733580;80;21087;-62
2021/06/14 02:37:37;;;;;;;4.55;2.08;;;;;;;16.36;70.67;99950.42;1726121;80;21090;-62
2021/06/14 02:40:07;;;;;;;4.78;2.05;;;;;;;16.41;70.69;99949.41;1731649;80;21049;-62
2021/06/14 02:42:35;;;;;;;5.17;2.27;;;;;;;16.46;70.55;99952.88;1731822;80;21113;-63
2021/06/14 02:45:06;;;;;;;4.12;2.00;;;;;;;16.48;70.51;99953.02;1716426;81;21109;-62
2021/06/14 02:47:33;;;;;;;5.75;2.42;;;;;;;16.49;70.34;99952.03;1719229;81;21102;-62
2021/06/14 02:50:01;;;;;;;7.20;2.37;;;;;;;16.48;70.34;99957.01;1716264;80;21106;-60
2021/06/14 02:52:27;;;;;;;5.90;2.52;;;;;;;16.50;70.27;99958.98;1722556;81;21088;-61
2021/06/14 02:55:00;;;;;;;6.72;2.85;;;;;;;16.55;70.14;99961.13;1728922;80;21459;-61
2021/06/14 02:57:28;;;;;;;10.58;2.33;;;;;;;16.62;70.12;99963.42;1731091;80;21734;-62
2021/06/14 02:59:55;;;;;;;6.22;2.05;;;;;;;16.66;69.82;99947.96;1729401;80;21438;-61
2021/06/14 03:02:23;;;;;;;5.70;2.12;;;;;;;16.63;69.67;99963.76;1719082;81;21165;-61
2021/06/14 03:04:50;;;;;;;6.78;2.27;;;;;;;16.62;69.52;99959.95;1731478;82;21138;-60
2021/06/14 03:07:22;;;;;;;5.25;2.02;;;;;;;16.62;69.64;99963.93;1716339;81;21179;-61
2021/06/14 03:09:49;;;;;;;7.30;2.58;;;;;;;16.67;69.29;99962.40;1731687;81;21182;-63
2021/06/14 03:12:18;;;;;;;5.87;2.27;;;;;;;16.70;69.47;99963.90;1731115;80;21133;-61
2021/06/14 03:14:46;;;;;;;6.40;2.12;;;;;;;16.73;69.58;99963.55;1731722;82;21078;-61
2021/06/14 03:17:12;;;;;;;4.67;1.87;;;;;;;16.75;69.77;99968.19;1730653;82;21114;-60
2021/06/14 03:19:39;;;;;;;4.45;2.10;;;;;;;16.82;69.53;99968.33;1718089;81;21070;-62
2021/06/14 03:22:11;;;;;;;3.95;1.65;;;;;;;16.91;69.29;99967.30;1730566;82;21480;-62
2021/06/14 03:24:40;;;;;;;5.72;2.10;;;;;;;16.99;68.68;99975.73;1730210;82;21134;-61
2021/06/14 03:27:08;;;;;;;4.35;1.95;;;;;;;17.02;68.25;99972.23;1725500;82;21142;-61
2021/06/14 03:29:34;;;;;;;4.45;1.87;;;;;;;17.05;68.22;99973.72;1731567;80;21633;-60
2021/06/14 03:32:03;;;;;;;4.42;2.27;;;;;;;17.07;68.07;99974.37;1732523;82;21063;-61
2021/06/14 03:34:32;;;;;;;4.65;2.33;;;;;;;17.10;67.96;99982.00;1739690;81;21090;-60
2021/06/14 03:36:59;;;;;;;4.80;2.20;;;;;;;17.14;68.18;99984.62;1737702;80;21669;-60
2021/06/14 03:39:27;;;;;;;4.37;1.98;;;;;;;17.22;67.78;99975.27;1739665;80;21137;-60
2021/06/14 03:41:54;;;;;;;4.45;2.20;;;;;;;17.31;66.96;99979.20;1737811;80;21095;-59
2021/06/14 03:44:21;;;;;;;4.70;2.25;;;;;;;17.35;67.08;99984.48;1738453;81;22372;-58
2021/06/14 03:46:50;;;;;;;6.85;2.62;;;;;;;17.36;67.11;99991.47;1737107;80;22055;-70
2021/06/14 03:49:17;;;;;;;4.20;2.00;;;;;;;17.42;67.13;99992.09;1739158;81;21141;-61
2021/06/14 03:51:45;;;;;;;4.80;1.80;;;;;;;17.45;67.26;99994.41;1738784;80;21468;-60
2021/06/14 03:54:11;;;;;;;7.08;2.22;;;;;;;17.52;66.65;99999.34;1738445;81;21075;-60
2021/06/14 03:56:38;;;;;;;5.45;1.90;;;;;;;17.62;66.02;99986.62;1736563;81;21145;-61
2021/06/14 03:59:05;;;;;;;4.37;1.90;;;;;;;17.68;65.81;99990.90;1738268;80;21135;-61
2021/06/14 04:01:32;;;;;;;4.92;2.40;;;;;;;17.69;65.69;99989.39;1712855;81;21114;-65
2021/06/14 04:04:20;;;;;;;4.75;2.00;;;;;;;17.65;65.99;99997.39;1716914;80;21070;-62
2021/06/14 04:06:36;;;;;;;6.03;2.08;;;;;;;17.64;66.24;99999.23;1737482;81;21110;-62
2021/06/14 04:09:04;;;;;;;3.55;1.70;;;;;;;17.69;65.80;99997.38;1739392;82;21207;-63
2021/06/14 04:11:31;;;;;;;3.27;1.52;;;;;;;17.74;65.76;100001.66;1737890;80;22226;-61
2021/06/14 04:13:58;;;;;;;5.92;2.30;;;;;;;17.87;65.81;100007.75;1737452;80;21101;-61
2021/06/14 04:16:24;;;;;;;4.85;2.10;;;;;;;17.99;65.51;100005.48;1737980;80;21082;-60
2021/06/14 04:18:53;;;;;;;4.67;1.87;;;;;;;18.07;65.05;100000.56;1716348;80;21078;-59
2021/06/14 04:21:19;;;;;;;4.65;2.00;;;;;;;18.08;64.97;100004.89;1719891;81;21173;-58
2021/06/14 04:23:46;;;;;;;4.70;2.22;;;;;;;18.11;65.37;100004.53;1738477;80;21108;-60
2021/06/14 04:26:13;;;;;;;3.72;1.47;;;;;;;18.16;64.99;100008.81;1736285;80;21613;-60
2021/06/14 04:28:41;;;;;;;4.78;1.95;;;;;;;18.21;64.99;100011.75;1738839;80;21098;-59
2021/06/14 04:31:09;;;;;;;4.92;1.90;;;;;;;18.29;64.32;100017.00;1734568;80;21070;-59
2021/06/14 04:33:36;;;;;;;6.47;2.22;;;;;;;18.34;63.87;100020.42;1741568;80;21118;-59
2021/06/14 04:36:04;;;;;;;4.80;1.90;;;;;;;18.36;64.12;100031.23;1741392;80;21882;-59
2021/06/14 04:38:32;;;;;;;4.62;2.22;;;;;;;18.37;64.26;100038.23;1744213;81;21109;-59
2021/06/14 04:40:59;;;;;;;5.85;3.17;;;;;;;18.38;64.54;100039.86;1724768;81;21501;-59
2021/06/14 04:43:25;;;;;;;5.53;2.60;;;;;;;18.40;64.25;100038.87;1743047;80;21106;-66
2021/06/14 04:45:52;;;;;;;8.43;4.12;;;;;;;18.41;63.99;100045.83;1741872;80;21140;-60
2021/06/14 04:48:18;;;;;;;6.90;4.05;;;;;;;18.44;64.08;100046.80;1743315;80;21297;-60
2021/06/14 04:50:45;;;;;;;8.40;4.03;;;;;;;18.55;64.03;100060.50;1741986;80;21507;-59
2021/06/14 04:53:12;;;;;;;39.85;30.75;;;;;;;18.61;63.97;100060.77;1724356;80;21046;-61
2021/06/14 04:55:38;;;;;;;43.60;29.10;;;;;;;18.57;63.86;100054.98;1743252;80;21381;-64
2021/06/14 04:58:05;;;;;;;11.33;7.12;;;;;;;18.53;64.01;100059.05;1742894;81;21418;-61
2021/06/14 05:00:31;;;;;;;11.18;6.28;;;;;;;18.51;64.12;100063.22;1743091;80;21420;-62
2021/06/14 05:02:58;;;;;;;30.80;21.60;;;;;;;18.54;64.35;100063.34;1743769;80;21058;-60
2021/06/14 05:05:25;;;;;;;31.42;21.35;;;;;;;18.60;64.67;100064.47;1741982;80;21356;-60
2021/06/14 05:07:52;;;;;;;8.90;5.72;;;;;;;18.69;64.45;100062.02;1722894;81;21101;-61
2021/06/14 05:10:18;;;;;;;39.50;28.47;;;;;;;18.78;64.52;100066.27;1743439;80;21579;-65
2021/06/14 05:12:44;;;;;;;5.80;3.25;;;;;;;18.81;64.34;100068.56;1744861;80;21163;-61
2021/06/14 05:15:12;;;;;;;5.58;2.90;;;;;;;18.84;64.15;100063.39;1742027;80;21133;-63
2021/06/14 05:17:39;;;;;;;6.42;3.37;;;;;;;18.81;64.26;100063.72;1725455;80;21029;-63
2021/06/14 05:20:06;;;;;;;6.85;3.42;;;;;;;18.77;64.47;100064.59;1744310;80;20951;-64
2021/06/14 05:22:33;;;;;;;10.45;5.05;;;;;;;18.82;64.78;100061.39;1742864;81;21141;-63
2021/06/14 05:24:59;;;;;;;6.55;3.35;;;;;;;18.95;64.53;100064.27;1741381;80;21102;-65
2021/06/14 05:27:26;;;;;;;5.00;2.27;;;;;;;19.06;64.57;100064.28;1725356;81;21054;-70
2021/06/14 05:29:53;;;;;;;7.70;3.47;;;;;;;19.14;64.74;100071.36;1723871;81;21161;-63
2021/06/14 05:32:19;;;;;;;7.35;3.27;;;;;;;19.26;64.70;100074.67;1741071;80;21522;-69
2021/06/14 05:34:46;;;;;;;8.88;3.50;;;;;;;19.38;64.67;100066.20;1722340;81;21590;-66
2021/06/14 05:37:13;;;;;;;5.55;3.55;;;;;;;19.52;64.16;100077.34;1743595;80;21121;-62
2021/06/14 05:39:39;;;;;;;4.78;2.60;;;;;;;19.65;63.79;100076.16;1741109;80;21124;-61
2021/06/14 05:42:06;;;;;;;5.25;2.67;;;;;;;19.79;63.36;100079.81;1740829;80;21104;-60
2021/06/14 05:44:33;;;;;;;10.13;4.33;;;;;;;19.87;63.17;100080.20;1742252;80;21375;-61
2021/06/14 05:46:59;;;;;;;5.42;3.10;;;;;;;19.91;63.07;100084.64;1743145;80;21380;-61
2021/06/14 05:49:26;;;;;;;6.03;3.62;;;;;;;19.90;63.14;100088.32;1741707;80;21854;-68
2021/06/14 05:51:53;;;;;;;5.40;2.83;;;;;;;19.90;62.89;100093.14;1744717;80;21046;-77
2021/06/14 05:54:20;;;;;;;6.15;3.10;;;;;;;19.88;63.40;100089.84;1744025;80;21140;-68
2021/06/14 05:56:47;;;;;;;6.15;3.58;;;;;;;19.86;63.06;100099.38;1742285;81;21234;-74
2021/06/14 05:59:13;;;;;;;7.20;3.20;;;;;;;19.89;63.17;100100.85;1744175;80;21118;-69
2021/06/14 06:01:40;;;;;;;7.22;3.02;;;;;;;19.97;63.41;100105.22;1741286;80;21193;-69
2021/06/14 06:04:20;;;;;;;5.60;3.40;;;;;;;20.06;63.46;100103.27;1744114;80;21113;-69
2021/06/14 06:06:45;;;;;;;6.35;3.60;;;;;;;20.16;63.51;100107.26;1740328;80;21082;-62
2021/06/14 06:09:12;;;;;;;8.20;4.42;;;;;;;20.27;63.11;100110.42;1725530;80;21185;-61
2021/06/14 06:11:39;;;;;;;5.17;3.30;;;;;;;20.36;62.98;100115.95;1743412;80;21465;-60
2021/06/14 06:14:06;;;;;;;5.08;2.87;;;;;;;20.45;62.52;100117.45;1743423;80;21098;-67
2021/06/14 06:16:33;;;;;;;7.25;3.85;;;;;;;20.50;62.72;100119.03;1741744;80;21446;-67
2021/06/14 06:19:00;;;;;;;8.88;3.95;;;;;;;20.55;62.17;100116.60;1723214;80;21149;-67
2021/06/14 06:21:28;;;;;;;5.65;2.90;;;;;;;20.68;61.68;100121.25;1743879;80;21093;-59
2021/06/14 06:23:56;;;;;;;5.00;2.85;;;;;;;20.74;61.05;100119.11;1726152;80;21117;-66
2021/06/14 06:26:23;;;;;;;5.50;2.55;;;;;;;20.72;60.94;100120.34;1743419;80;21078;-65
2021/06/14 06:28:50;;;;;;;5.72;2.72;;;;;;;20.68;61.27;100123.08;1742559;80;21086;-68
2021/06/14 06:31:18;;;;;;;5.83;3.25;;;;;;;20.65;61.51;100123.50;1742938;80;21110;-67
2021/06/14 06:33:45;;;;;;;7.67;3.92;;;;;;;20.64;61.26;100127.18;1733009;80;21129;-67
2021/06/14 06:36:13;;;;;;;6.55;3.15;;;;;;;20.59;61.40;100127.72;1730308;80;21089;-68
2021/06/14 06:38:40;;;;;;;6.10;3.30;;;;;;;20.57;61.57;100125.24;1730760;80;21866;-67
2021/06/14 06:41:07;;;;;;;5.70;3.22;;;;;;;20.60;61.61;100123.52;1728515;80;21466;-69
2021/06/14 06:43:37;;;;;;;5.15;2.70;;;;;;;20.67;61.38;100124.94;1730892;80;21538;-65
2021/06/14 06:46:04;;;;;;;7.17;3.20;;;;;;;20.70;61.62;100124.55;1731458;80;21663;-67
2021/06/14 06:48:31;;;;;;;6.50;3.22;;;;;;;20.69;62.11;100127.42;1729127;80;21071;-66
2021/06/14 06:50:58;;;;;;;5.40;2.80;;;;;;;20.75;62.18;100133.33;1729214;80;22499;-68
2021/06/14 06:53:28;;;;;;;7.60;3.40;;;;;;;20.80;62.11;100132.23;1730715;80;21562;-66
2021/06/14 06:55:55;;;;;;;7.20;3.17;;;;;;;20.86;62.04;100135.95;1731377;80;21011;-68
2021/06/14 06:58:22;;;;;;;5.33;2.65;;;;;;;20.85;62.18;100134.33;1731427;80;21085;-68
2021/06/14 07:00:51;;;;;;;5.42;2.70;;;;;;;20.93;62.33;100136.81;1723755;80;21062;-67
2021/06/14 07:03:18;;;;;;;5.20;2.22;;;;;;;21.05;61.93;100143.80;1733543;80;21129;-66
2021/06/14 07:05:46;;;;;;;6.37;3.10;;;;;;;21.13;61.63;100146.29;1729294;80;21093;-77
2021/06/14 07:08:12;;;;;;;5.87;3.25;;;;;;;21.19;61.28;100141.50;1730375;80;21086;-69
2021/06/14 07:10:39;;;;;;;5.72;3.20;;;;;;;21.20;61.12;100151.67;1729671;80;21071;-71
2021/06/14 07:13:06;;;;;;;7.22;3.12;;;;;;;21.14;61.30;100153.30;1729303;80;21676;-74
2021/06/14 07:15:33;;;;;;;5.72;3.10;;;;;;;21.10;61.77;100150.72;1730965;80;21134;-71
2021/06/14 07:18:02;;;;;;;5.65;2.80;;;;;;;21.11;62.35;100154.51;1730429;80;21060;-69
2021/06/14 07:20:29;;;;;;;5.12;2.67;;;;;;;21.19;61.33;100154.88;1732116;80;21141;-70
2021/06/14 07:22:57;;;;;;;6.05;2.98;;;;;;;21.28;61.36;100152.85;1730835;80;21043;-69
2021/06/14 07:25:24;;;;;;;6.45;3.08;;;;;;;21.36;61.12;100157.22;1729211;80;21091;-68
2021/06/14 07:27:51;;;;;;;6.35;3.40;;;;;;;21.42;61.36;100157.77;1731928;80;21935;-69
2021/06/14 07:30:19;;;;;;;6.62;3.75;;;;;;;21.49;61.35;100162.66;1729624;80;21043;-68
2021/06/14 07:32:46;;;;;;;7.50;3.17;;;;;;;21.49;60.45;100170.17;1732488;80;21076;-68
2021/06/14 07:35:15;;;;;;;5.78;3.35;;;;;;;21.44;60.80;100169.09;1744425;80;21098;-70
2021/06/14 07:37:41;;;;;;;5.67;2.80;;;;;;;21.50;61.52;100172.33;1729715;80;21125;-67
2021/06/14 07:40:09;;;;;;;5.35;3.00;;;;;;;21.64;61.70;100174.56;1744007;80;21452;-69
2021/06/14 07:42:37;;;;;;;4.37;2.65;;;;;;;21.84;61.16;100175.97;1751624;80;21117;-68
2021/06/14 07:45:05;;;;;;;5.75;3.42;;;;;;;22.01;60.79;100171.88;1744576;80;21088;-67
2021/06/14 07:47:35;;;;;;;4.90;2.95;;;;;;;22.14;59.98;100166.22;1743052;80;21148;-65
2021/06/14 07:50:01;;;;;;;6.22;3.15;;;;;;;22.18;59.76;100174.99;1743169;80;21109;-67
2021/06/14 07:52:29;;;;;;;6.58;3.47;;;;;;;22.23;60.06;100178.41;1706876;82;22795;-68
2021/06/14 07:54:56;;;;;;;7.22;3.90;;;;;;;22.25;59.15;100173.66;1686758;83;21178;-67
2021/06/14 07:57:22;;;;;;;6.03;3.47;;;;;;;22.22;59.72;100172.73;1684817;82;21127;-63
2021/06/14 07:59:52;;;;;;;5.97;3.70;;;;;;;22.19;59.45;100171.79;1705111;82;21336;-64
2021/06/14 08:02:18;;;;;;;5.92;3.00;;;;;;;22.16;59.64;100177.58;1688019;83;21134;-64
2021/06/14 08:04:45;;;;;;;5.70;3.45;;;;;;;22.21;59.90;100179.95;1686759;83;21149;-65
2021/06/14 08:07:12;;;;;;;4.85;2.83;;;;;;;22.38;59.83;100183.61;1689614;83;21154;-62
2021/06/14 08:09:38;;;;;;;6.45;3.80;;;;;;;22.51;59.08;100186.30;1684862;83;21376;-65
2021/06/14 08:12:06;;;;;;;7.85;3.58;;;;;;;22.61;58.82;100185.86;1686437;84;21692;-65
2021/06/14 08:14:32;;;;;;;5.92;3.15;;;;;;;22.71;58.54;100189.47;1685327;83;21170;-61
2021/06/14 08:17:02;;;;;;;5.05;3.20;;;;;;;22.82;57.94;100189.67;1687260;84;21219;-66
2021/06/14 08:19:37;;;;;;;5.15;3.12;;;;;;;22.86;58.31;100200.80;1666760;83;21083;-66
2021/06/14 08:27:19;;;;;;;5.55;3.00;;;;;;;23.17;57.50;100200.17;1684833;84;20545;-67
2021/06/14 08:29:46;;;;;;;7.67;2.77;;;;;;;23.25;57.35;100200.97;1686778;83;21324;-66
2021/06/14 08:32:12;;;;;;;4.60;2.67;;;;;;;23.42;57.55;100214.75;1681358;83;21076;-67
2021/06/14 08:34:39;;;;;;;4.80;2.75;;;;;;;23.63;57.98;100213.66;1682367;82;21705;-65
2021/06/14 08:37:05;;;;;;;5.90;3.30;;;;;;;23.89;57.42;100222.97;1729907;80;21079;-64
2021/06/14 08:39:32;;;;;;;9.75;3.35;;;;;;;24.10;56.48;100220.99;1730811;80;21577;-65
2021/06/14 08:42:00;;;;;;;4.92;3.10;;;;;;;24.18;56.03;100224.77;1729972;80;21455;-64
2021/06/14 08:44:27;;;;;;;4.92;2.60;;;;;;;24.21;55.72;100224.84;1733246;80;21613;-62
2021/06/14 08:46:54;;;;;;;5.08;2.90;;;;;;;24.19;55.46;100226.93;1728477;80;21146;-69
2021/06/14 08:49:21;;;;;;;5.95;3.10;;;;;;;24.15;55.46;100231.92;1731516;81;21173;-69
2021/06/14 08:51:47;;;;;;;4.70;2.58;;;;;;;24.22;55.97;100235.38;1731254;80;21103;-66
2021/06/14 08:54:14;;;;;;;6.22;2.70;;;;;;;24.33;56.06;100232.54;1729157;80;21901;-64
2021/06/14 08:56:41;;;;;;;4.45;2.60;;;;;;;24.45;55.27;100234.82;1729629;80;21130;-65
2021/06/14 08:59:08;;;;;;;5.78;2.62;;;;;;;24.55;54.65;100236.25;1729810;80;21118;-63
2021/06/14 09:01:35;;;;;;;5.22;2.80;;;;;;;24.60;53.96;100233.72;1729572;80;21055;-62
2021/06/14 09:04:01;;;;;;;4.78;2.60;;;;;;;24.62;54.14;100237.83;1732141;80;21086;-67
2021/06/14 09:06:28;;;;;;;5.75;2.77;;;;;;;24.63;54.33;100240.83;1718583;81;21098;-66
2021/06/14 09:09:06;;;;;;;4.75;2.80;;;;;;;24.65;53.98;100238.73;1730602;80;21549;-64
2021/06/14 09:11:36;;;;;;;4.55;2.58;;;;;;;24.70;54.08;100242.66;1730818;80;21079;-66
2021/06/14 09:14:15;;;;;;;5.00;2.83;;;;;;;24.72;54.53;100244.06;1731425;80;21106;-67
2021/06/14 09:16:42;;;;;;;5.30;3.12;;;;;;;24.77;54.35;100252.83;1719079;80;21145;-67
2021/06/14 09:19:28;;;;;;;4.70;2.75;;;;;;;24.77;53.92;100245.58;1733199;80;21094;-66
2021/06/14 09:21:55;;;;;;;4.70;2.65;;;;;;;24.74;53.86;100255.42;1731666;80;21149;-67
2021/06/14 09:24:25;;;;;;;5.42;2.60;;;;;;;24.74;53.52;100246.54;1731045;80;22060;-66
2021/06/14 09:26:52;;;;;;;4.58;2.52;;;;;;;24.76;54.18;100253.87;1730204;80;21102;-69
2021/06/14 09:29:27;;;;;;;8.65;3.08;;;;;;;24.83;54.20;100253.28;1732489;80;21411;-66
2021/06/14 09:31:59;;;;;;;5.47;2.70;;;;;;;24.93;53.75;100245.56;1730466;82;21796;-68
2021/06/14 09:34:37;;;;;;;5.90;2.52;;;;;;;24.99;53.82;100254.07;1729452;80;21359;-66
2021/06/14 09:37:06;;;;;;;5.08;2.90;;;;;;;25.03;53.65;100251.26;1731273;80;21090;-67
2021/06/14 09:39:39;;;;;;;4.33;2.17;;;;;;;25.08;52.99;100244.37;1731663;80;22294;-65
2021/06/14 09:42:21;;;;;;;4.08;2.22;;;;;;;25.10;53.00;100250.35;1718097;81;21114;-66
2021/06/14 09:44:49;;;;;;;5.40;2.65;;;;;;;25.18;53.33;100255.45;1732081;80;21787;-66
2021/06/14 09:47:16;;;;;;;4.87;2.55;;;;;;;25.26;52.96;100259.23;1731078;81;21071;-67
2021/06/14 09:50:07;;;;;;;5.40;2.83;;;;;;;25.34;53.04;100256.25;1731295;80;21110;-66
2021/06/14 09:52:35;;;;;;;5.17;2.98;;;;;;;25.37;52.58;100251.77;1732204;80;21488;-66
2021/06/14 09:55:12;;;;;;;6.12;2.62;;;;;;;25.40;52.28;100254.02;1725396;81;21712;-65
2021/06/14 09:57:39;;;;;;;4.53;2.52;;;;;;;25.46;52.24;100259.03;1730677;80;21993;-67
2021/06/14 10:00:10;;;;;;;7.00;3.00;;;;;;;25.52;52.12;100253.25;1730423;80;21055;-66
2021/06/14 10:02:37;;;;;;;4.40;2.25;;;;;;;25.61;51.41;100257.30;1717279;81;21090;-64
2021/06/14 10:05:19;;;;;;;5.55;2.70;;;;;;;25.67;51.47;100256.41;1727482;80;21396;-67
2021/06/14 10:07:50;;;;;;;4.62;2.77;;;;;;;25.68;50.18;100255.34;1730071;81;21016;-65
2021/06/14 10:10:22;;;;;;;5.20;2.87;;;;;;;25.62;50.13;100259.47;1733210;80;21078;-65
2021/06/14 10:12:54;;;;;;;4.30;2.30;;;;;;;25.52;50.62;100259.98;1729737;82;21206;-68
2021/06/14 10:15:37;;;;;;;7.25;2.80;;;;;;;25.50;50.47;100256.20;1729476;80;21070;-68
2021/06/14 10:18:11;;;;;;;5.12;2.83;;;;;;;25.55;51.21;100259.55;1731926;81;21106;-68
2021/06/14 10:20:39;;;;;;;7.20;3.25;;;;;;;25.62;51.46;100265.70;1729393;80;21098;-68
2021/06/14 10:23:06;;;;;;;5.40;2.60;;;;;;;25.72;51.41;100264.64;1730442;82;22502;-60
2021/06/14 10:25:34;;;;;;;7.25;2.90;;;;;;;25.77;50.67;100267.98;1694901;82;21062;-68
2021/06/14 10:28:01;;;;;;;6.67;3.17;;;;;;;25.81;50.84;100262.99;1662748;84;22413;-65
2021/06/14 10:30:28;;;;;;;5.30;2.87;;;;;;;25.85;50.43;100262.83;1722113;80;21074;-65
2021/06/14 10:32:55;;;;;;;5.12;2.50;;;;;;;25.88;50.59;100263.19;1733132;80;21059;-65
2021/06/14 10:35:21;;;;;;;6.83;2.65;;;;;;;25.95;50.83;100264.48;1741812;80;21071;-64
2021/06/14 10:37:56;;;;;;;7.70;2.80;;;;;;;26.07;51.07;100263.19;1743371;80;21034;-65
2021/06/14 10:40:26;;;;;;;7.12;2.95;;;;;;;26.16;50.65;100258.29;1745502;81;21420;-65
2021/06/14 10:42:54;;;;;;;5.62;3.05;;;;;;;26.19;50.62;100263.23;1725284;81;21082;-65
2021/06/14 10:45:26;;;;;;;5.35;2.52;;;;;;;26.22;50.38;100263.59;1744794;81;21153;-63
2021/06/14 10:47:53;;;;;;;6.25;2.70;;;;;;;26.23;50.33;100263.90;1743189;80;22445;-65
2021/06/14 10:50:26;;;;;;;4.85;2.90;;;;;;;26.23;50.77;100264.44;1743814;80;21560;-64
2021/06/14 10:52:55;;;;;;;5.83;2.80;;;;;;;26.20;50.80;100262.19;1744796;80;21678;-66
2021/06/14 10:55:27;;;;;;;5.62;2.40;;;;;;;26.17;50.42;100259.41;1745116;80;21348;-66
2021/06/14 10:57:54;;;;;;;4.17;2.27;;;;;;;26.21;50.42;100265.16;1745473;81;21157;-66
2021/06/14 11:00:29;;;;;;;7.35;2.62;;;;;;;26.24;50.40;100256.12;1744328;80;21157;-66
2021/06/14 11:02:59;;;;;;;5.75;2.83;;;;;;;26.32;50.86;100260.34;1724828;81;21128;-65
2021/06/14 11:05:41;;;;;;;6.28;2.62;;;;;;;26.33;50.38;100258.77;1709374;82;21172;-65
2021/06/14 11:08:19;;;;;;;5.08;2.55;;;;;;;26.32;50.18;100255.77;1707139;82;21114;-64
2021/06/14 11:11:06;;;;;;;7.65;3.17;;;;;;;26.27;50.22;100257.52;1666905;84;22242;-67
2021/06/14 11:13:34;;;;;;;4.45;2.62;;;;;;;26.25;50.74;100258.28;1685742;83;21097;-65
2021/06/14 11:16:06;;;;;;;5.35;2.83;;;;;;;26.32;51.20;100263.05;1688120;84;21174;-66
2021/06/14 11:18:32;;;;;;;4.47;2.40;;;;;;;26.38;49.80;100261.29;1688964;83;21903;-66
2021/06/14 11:21:13;;;;;;;4.42;2.35;;;;;;;26.45;49.21;100255.29;1688263;84;21079;-66
2021/06/14 11:23:43;;;;;;;5.55;2.80;;;;;;;26.54;49.24;100260.63;1707807;82;21082;-64
2021/06/14 11:26:11;;;;;;;7.15;2.72;;;;;;;26.65;48.84;100257.17;1706783;82;21087;-66
2021/06/14 11:28:42;;;;;;;4.83;2.58;;;;;;;26.73;48.48;100257.87;1697488;83;21058;-66
2021/06/14 11:31:20;;;;;;;4.85;2.80;;;;;;;26.77;48.21;100257.19;1729383;82;21110;-66
2021/06/14 11:33:48;;;;;;;5.37;2.27;;;;;;;26.78;47.79;100250.75;1679639;83;21117;-64
2021/06/14 11:36:26;;;;;;;5.35;2.87;;;;;;;26.71;48.02;100255.41;1688099;83;21154;-63
2021/06/14 11:38:55;;;;;;;4.62;2.65;;;;;;;26.68;48.71;100245.91;1658814;84;22053;-65
2021/06/14 11:41:29;;;;;;;4.87;2.80;;;;;;;26.73;48.93;100243.03;1730797;81;21058;-64